sensor_id;sensor_type;location;lat;lon;timestamp;pressure;altitude;pressure_sealevel;temperature;humidity
47374;BME280;33123;50.118;10.272;2023-04-27T00:00:46;97851.50;;;8.70;48.02
47374;BME280;33123;50.118;10.272;2023-04-27T00:03:12;97843.88;;;8.69;49.07
47374;BME280;33123;50.118;10.272;2023-04-27T00:05:40;97846.13;;;8.65;49.52
47374;BME280;33123;50.118;10.272;2023-04-27T00:08:06;97844.00;;;8.62;50.90
47374;BME280;33123;50.118;10.272;2023-04-27T00:10:35;97839.19;;;8.59;51.23
47374;BME280;33123;50.118;10.272;2023-04-27T00:13:01;97843.06;;;8.57;51.72
47374;BME280;33123;50.118;10.272;2023-04-27T00:15:28;97843.75;;;8.52;52.08
47374;BME280;33123;50.118;10.272;2023-04-27T00:17:55;97850.50;;;8.48;51.78
47374;BME280;33123;50.118;10.272;2023-04-27T00:20:22;97841.50;;;8.44;52.23
47374;BME280;33123;50.118;10.272;2023-04-27T00:22:49;97843.75;;;8.40;51.99
47374;BME280;33123;50.118;10.272;2023-04-27T00:25:16;97845.00;;;8.38;52.46
47374;BME280;33123;50.118;10.272;2023-04-27T00:27:44;97839.38;;;8.34;52.04
47374;BME280;33123;50.118;10.272;2023-04-27T00:30:10;97829.56;;;8.30;52.18
47374;BME280;33123;50.118;10.272;2023-04-27T00:32:37;97834.25;;;8.28;52.77
47374;BME280;33123;50.118;10.272;2023-04-27T00:35:04;97837.31;;;8.25;52.75
47374;BME280;33123;50.118;10.272;2023-04-27T00:37:31;97837.75;;;8.21;52.76
47374;BME280;33123;50.118;10.272;2023-04-27T00:39:57;97836.41;;;8.19;52.92
47374;BME280;33123;50.118;10.272;2023-04-27T00:42:24;97836.84;;;8.16;52.65
47374;BME280;33123;50.118;10.272;2023-04-27T00:44:52;97832.84;;;8.13;53.01
47374;BME280;33123;50.118;10.272;2023-04-27T00:47:19;97833.28;;;8.10;51.94
47374;BME280;33123;50.118;10.272;2023-04-27T00:49:48;97831.94;;;8.08;52.20
47374;BME280;33123;50.118;10.272;2023-04-27T00:52:15;97832.38;;;8.05;52.03
47374;BME280;33123;50.118;10.272;2023-04-27T00:54:41;97822.56;;;8.00;53.29
47374;BME280;33123;50.118;10.272;2023-04-27T00:57:08;97828.63;;;8.01;53.31
47374;BME280;33123;50.118;10.272;2023-04-27T00:59:35;97829.66;;;8.00;53.57
47374;BME280;33123;50.118;10.272;2023-04-27T01:02:03;97829.84;;;7.98;53.67
47374;BME280;33123;50.118;10.272;2023-04-27T01:04:30;97824.84;;;7.97;53.34
47374;BME280;33123;50.118;10.272;2023-04-27T01:06:57;97820.63;;;7.96;53.53
47374;BME280;33123;50.118;10.272;2023-04-27T01:09:23;97819.03;;;7.94;53.35
47374;BME280;33123;50.118;10.272;2023-04-27T01:11:50;97824.28;;;7.94;53.65
47374;BME280;33123;50.118;10.272;2023-04-27T01:14:17;97824.72;;;7.91;52.91
47374;BME280;33123;50.118;10.272;2023-04-27T01:16:43;97818.91;;;7.89;53.50
47374;BME280;33123;50.118;10.272;2023-04-27T01:19:12;97820.59;;;7.84;53.89
47374;BME280;33123;50.118;10.272;2023-04-27T01:21:38;97824.47;;;7.81;54.39
47374;BME280;33123;50.118;10.272;2023-04-27T01:24:07;97822.88;;;7.80;54.12
47374;BME280;33123;50.118;10.272;2023-04-27T01:26:34;97822.31;;;7.78;54.54
47374;BME280;33123;50.118;10.272;2023-04-27T01:29:00;97823.31;;;7.77;54.63
47374;BME280;33123;50.118;10.272;2023-04-27T01:31:27;97820.13;;;7.75;55.13
47374;BME280;33123;50.118;10.272;2023-04-27T01:33:54;97818.53;;;7.74;55.20
47374;BME280;33123;50.118;10.272;2023-04-27T01:36:21;97822.19;;;7.73;54.69
47374;BME280;33123;50.118;10.272;2023-04-27T01:38:47;97811.88;;;7.72;54.27
47374;BME280;33123;50.118;10.272;2023-04-27T01:41:15;97773.59;;;7.40;53.22
47374;BME280;33123;50.118;10.272;2023-04-27T01:43:42;97815.22;;;7.67;54.51
47374;BME280;33123;50.118;10.272;2023-04-27T01:46:11;97817.81;;;7.67;55.04
47374;BME280;33123;50.118;10.272;2023-04-27T01:48:38;97819.66;;;7.66;55.09
47374;BME280;33123;50.118;10.272;2023-04-27T01:51:05;97823.06;;;7.67;54.75
47374;BME280;33123;50.118;10.272;2023-04-27T01:53:32;97817.03;;;7.66;55.39
47374;BME280;33123;50.118;10.272;2023-04-27T01:55:59;97826.69;;;7.66;54.99
47374;BME280;33123;50.118;10.272;2023-04-27T01:58:27;97816.53;;;7.58;55.71
47374;BME280;33123;50.118;10.272;2023-04-27T02:00:54;97826.69;;;7.66;55.43
47374;BME280;33123;50.118;10.272;2023-04-27T02:03:21;97827.53;;;7.66;55.70
47374;BME280;33123;50.118;10.272;2023-04-27T02:05:47;97831.94;;;7.66;55.63
47374;BME280;33123;50.118;10.272;2023-04-27T02:08:14;97829.56;;;7.64;55.55
47374;BME280;33123;50.118;10.272;2023-04-27T02:10:40;97835.59;;;7.65;55.67
47374;BME280;33123;50.118;10.272;2023-04-27T02:13:08;97822.47;;;7.65;56.06
47374;BME280;33123;50.118;10.272;2023-04-27T02:15:36;97828.97;;;7.62;55.88
47374;BME280;33123;50.118;10.272;2023-04-27T02:18:03;97835.03;;;7.63;56.31
47374;BME280;33123;50.118;10.272;2023-04-27T02:20:30;97818.59;;;7.56;56.80
47374;BME280;33123;50.118;10.272;2023-04-27T02:22:56;97833.44;;;7.62;56.24
47374;BME280;33123;50.118;10.272;2023-04-27T02:25:23;97838.69;;;7.62;55.96
47374;BME280;33123;50.118;10.272;2023-04-27T02:27:50;97846.75;;;7.60;56.05
47374;BME280;33123;50.118;10.272;2023-04-27T02:30:16;97844.34;;;7.59;56.08
47374;BME280;33123;50.118;10.272;2023-04-27T02:32:44;97848.00;;;7.58;55.81
47374;BME280;33123;50.118;10.272;2023-04-27T02:35:11;97846.19;;;7.58;56.48
47374;BME280;33123;50.118;10.272;2023-04-27T02:37:38;97849.84;;;7.57;56.10
47374;BME280;33123;50.118;10.272;2023-04-27T02:40:06;97846.97;;;7.59;55.89
47374;BME280;33123;50.118;10.272;2023-04-27T02:42:33;97846.19;;;7.58;55.79
47374;BME280;33123;50.118;10.272;2023-04-27T02:45:03;97854.63;;;7.60;55.64
47374;BME280;33123;50.118;10.272;2023-04-27T02:47:29;97860.69;;;7.61;55.81
47374;BME280;33123;50.118;10.272;2023-04-27T02:49:57;97855.44;;;7.61;55.51
47374;BME280;33123;50.118;10.272;2023-04-27T02:52:24;97858.28;;;7.59;55.31
47374;BME280;33123;50.118;10.272;2023-04-27T02:54:51;97865.56;;;7.57;54.90
47374;BME280;33123;50.118;10.272;2023-04-27T02:57:17;97860.56;;;7.56;55.87
47374;BME280;33123;50.118;10.272;2023-04-27T02:59:44;97862.38;;;7.55;56.06
47374;BME280;33123;50.118;10.272;2023-04-27T03:02:11;97857.56;;;7.52;55.76
47374;BME280;33123;50.118;10.272;2023-04-27T03:04:37;97857.00;;;7.50;55.33
47374;BME280;33123;50.118;10.272;2023-04-27T03:07:05;97861.44;;;7.50;55.47
47374;BME280;33123;50.118;10.272;2023-04-27T03:09:32;97857.00;;;7.50;55.89
47374;BME280;33123;50.118;10.272;2023-04-27T03:11:59;97860.41;;;7.51;56.17
47374;BME280;33123;50.118;10.272;2023-04-27T03:14:26;97864.06;;;7.50;55.99
47374;BME280;33123;50.118;10.272;2023-04-27T03:16:53;97871.69;;;7.51;55.59
47374;BME280;33123;50.118;10.272;2023-04-27T03:19:21;97866.69;;;7.50;56.17
47374;BME280;33123;50.118;10.272;2023-04-27T03:21:48;97869.31;;;7.50;55.68
47374;BME280;33123;50.118;10.272;2023-04-27T03:24:16;97862.44;;;7.49;56.24
47374;BME280;33123;50.118;10.272;2023-04-27T03:26:42;97862.44;;;7.49;56.31
47374;BME280;33123;50.118;10.272;2023-04-27T03:29:09;97872.72;;;7.50;56.67
47374;BME280;33123;50.118;10.272;2023-04-27T03:31:36;97869.31;;;7.50;56.38
47374;BME280;33123;50.118;10.272;2023-04-27T03:34:03;97876.16;;;7.51;56.74
47374;BME280;33123;50.118;10.272;2023-04-27T03:36:29;97872.50;;;7.52;56.59
47374;BME280;33123;50.118;10.272;2023-04-27T03:38:57;97888.81;;;7.54;56.96
47374;BME280;33123;50.118;10.272;2023-04-27T03:41:25;97876.94;;;7.51;56.50
47374;BME280;33123;50.118;10.272;2023-04-27T03:43:51;97888.66;;;7.49;55.82
47374;BME280;33123;50.118;10.272;2023-04-27T03:46:18;97877.59;;;7.47;56.84
47374;BME280;33123;50.118;10.272;2023-04-27T03:48:44;97884.44;;;7.48;56.58
47374;BME280;33123;50.118;10.272;2023-04-27T03:51:11;97878.63;;;7.46;56.70
47374;BME280;33123;50.118;10.272;2023-04-27T03:53:38;97872.22;;;7.41;56.71
47374;BME280;33123;50.118;10.272;2023-04-27T03:56:05;97875.06;;;7.40;55.90
47374;BME280;33123;50.118;10.272;2023-04-27T03:58:33;97880.88;;;7.42;56.73
47374;BME280;33123;50.118;10.272;2023-04-27T04:01:00;97871.66;;;7.39;56.84
47374;BME280;33123;50.118;10.272;2023-04-27T04:03:26;97876.31;;;7.37;56.21
47374;BME280;33123;50.118;10.272;2023-04-27T04:05:53;97876.53;;;7.36;56.50
47374;BME280;33123;50.118;10.272;2023-04-27T04:08:20;97870.72;;;7.34;56.45
47374;BME280;33123;50.118;10.272;2023-04-27T04:10:46;97866.34;;;7.28;56.66
47374;BME280;33123;50.118;10.272;2023-04-27T04:13:15;97877.19;;;7.31;57.03
47374;BME280;33123;50.118;10.272;2023-04-27T04:15:43;97874.56;;;7.31;57.19
47374;BME280;33123;50.118;10.272;2023-04-27T04:18:09;97870.91;;;7.32;56.83
47374;BME280;33123;50.118;10.272;2023-04-27T04:20:36;97874.38;;;7.33;56.80
47374;BME280;33123;50.118;10.272;2023-04-27T04:23:02;97877.19;;;7.31;56.28
47374;BME280;33123;50.118;10.272;2023-04-27T04:25:29;97871.94;;;7.31;56.75
47374;BME280;33123;50.118;10.272;2023-04-27T04:27:56;97874.78;;;7.30;56.70
47374;BME280;33123;50.118;10.272;2023-04-27T04:30:23;97870.34;;;7.30;57.36
47374;BME280;33123;50.118;10.272;2023-04-27T04:32:51;97871.38;;;7.29;56.51
47374;BME280;33123;50.118;10.272;2023-04-27T04:35:19;97872.41;;;7.28;57.41
47374;BME280;33123;50.118;10.272;2023-04-27T04:37:46;97878.78;;;7.32;57.31
47374;BME280;33123;50.118;10.272;2023-04-27T04:40:12;97876.16;;;7.32;56.37
47374;BME280;33123;50.118;10.272;2023-04-27T04:42:39;97875.72;;;7.35;56.71
47374;BME280;33123;50.118;10.272;2023-04-27T04:45:06;97878.34;;;7.35;56.90
47374;BME280;33123;50.118;10.272;2023-04-27T04:47:33;97870.72;;;7.34;56.62
47374;BME280;33123;50.118;10.272;2023-04-27T04:50:02;97876.75;;;7.34;56.80
47374;BME280;33123;50.118;10.272;2023-04-27T04:52:29;97879.53;;;7.39;56.61
47374;BME280;33123;50.118;10.272;2023-04-27T04:54:55;97883.88;;;7.46;57.08
47374;BME280;33123;50.118;10.272;2023-04-27T04:57:22;97886.66;;;7.51;56.76
47374;BME280;33123;50.118;10.272;2023-04-27T04:59:49;97898.63;;;7.58;56.88
47374;BME280;33123;50.118;10.272;2023-04-27T05:02:16;97889.09;;;7.64;56.07
47374;BME280;33123;50.118;10.272;2023-04-27T05:04:42;97893.66;;;7.68;55.54
47374;BME280;33123;50.118;10.272;2023-04-27T05:07:11;97903.28;;;7.75;54.77
47374;BME280;33123;50.118;10.272;2023-04-27T05:09:37;97901.81;;;7.79;54.42
47374;BME280;33123;50.118;10.272;2023-04-27T05:12:04;97911.19;;;7.86;54.44
47374;BME280;33123;50.118;10.272;2023-04-27T05:14:31;97913.72;;;7.93;54.04
47374;BME280;33123;50.118;10.272;2023-04-27T05:16:58;97909.75;;;8.02;54.35
47374;BME280;33123;50.118;10.272;2023-04-27T05:19:27;97911.06;;;8.11;54.77
47374;BME280;33123;50.118;10.272;2023-04-27T05:21:54;97902.47;;;8.16;53.51
47374;BME280;33123;50.118;10.272;2023-04-27T05:24:22;97906.03;;;8.21;54.31
47374;BME280;33123;50.118;10.272;2023-04-27T05:26:49;97910.88;;;8.36;54.25
47374;BME280;33123;50.118;10.272;2023-04-27T05:29:15;97904.84;;;8.59;54.46
47374;BME280;33123;50.118;10.272;2023-04-27T05:31:42;97906.47;;;8.95;52.73
47374;BME280;33123;50.118;10.272;2023-04-27T05:34:08;97901.94;;;9.31;51.06
47374;BME280;33123;50.118;10.272;2023-04-27T05:36:35;97884.34;;;9.60;49.57
47374;BME280;33123;50.118;10.272;2023-04-27T05:39:02;97894.75;;;9.95;48.61
47374;BME280;33123;50.118;10.272;2023-04-27T05:41:30;97904.59;;;10.17;47.95
47374;BME280;33123;50.118;10.272;2023-04-27T05:43:57;97903.34;;;10.36;47.56
47374;BME280;33123;50.118;10.272;2023-04-27T05:46:24;97910.00;;;10.55;47.82
47374;BME280;33123;50.118;10.272;2023-04-27T05:48:50;97905.66;;;10.83;47.80
47374;BME280;33123;50.118;10.272;2023-04-27T05:51:17;97909.25;;;11.16;46.56
47374;BME280;33123;50.118;10.272;2023-04-27T05:53:44;97912.69;;;11.60;46.47
47374;BME280;33123;50.118;10.272;2023-04-27T05:56:10;97903.81;;;11.93;45.03
47374;BME280;33123;50.118;10.272;2023-04-27T05:58:38;97892.06;;;12.38;44.86
47374;BME280;33123;50.118;10.272;2023-04-27T06:01:06;97903.81;;;12.89;44.73
47374;BME280;33123;50.118;10.272;2023-04-27T06:03:33;97914.38;;;13.32;41.90
47374;BME280;33123;50.118;10.272;2023-04-27T06:06:00;97908.22;;;13.84;41.32
47374;BME280;33123;50.118;10.272;2023-04-27T06:08:27;97904.56;;;14.31;41.07
47374;BME280;33123;50.118;10.272;2023-04-27T06:10:53;97902.75;;;14.62;39.54
47374;BME280;33123;50.118;10.272;2023-04-27T06:13:20;97911.22;;;14.74;39.26
47374;BME280;33123;50.118;10.272;2023-04-27T06:15:48;97905.13;;;14.78;38.61
47374;BME280;33123;50.118;10.272;2023-04-27T06:18:15;97914.69;;;14.69;39.08
47374;BME280;33123;50.118;10.272;2023-04-27T06:20:42;97916.53;;;14.69;39.60
47374;BME280;33123;50.118;10.272;2023-04-27T06:23:08;97918.13;;;14.65;39.21
47374;BME280;33123;50.118;10.272;2023-04-27T06:25:35;97918.94;;;14.55;39.23
47374;BME280;33123;50.118;10.272;2023-04-27T06:28:04;97920.75;;;14.39;38.89
47374;BME280;33123;50.118;10.272;2023-04-27T06:30:31;97924.47;;;14.33;39.12
47374;BME280;33123;50.118;10.272;2023-04-27T06:32:59;97931.63;;;14.27;40.91
47374;BME280;33123;50.118;10.272;2023-04-27T06:35:25;97925.78;;;14.25;39.67
47374;BME280;33123;50.118;10.272;2023-04-27T06:37:52;97930.56;;;14.23;39.68
47374;BME280;33123;50.118;10.272;2023-04-27T06:40:23;97933.50;;;14.27;39.42
47374;BME280;33123;50.118;10.272;2023-04-27T06:42:50;97907.50;;;14.24;39.67
47374;BME280;33123;50.118;10.272;2023-04-27T06:45:16;97930.59;;;14.49;39.75
47374;BME280;33123;50.118;10.272;2023-04-27T06:47:44;97927.69;;;14.61;38.32
47374;BME280;33123;50.118;10.272;2023-04-27T06:50:13;97930.06;;;14.72;39.22
47374;BME280;33123;50.118;10.272;2023-04-27T06:52:39;97935.91;;;14.85;38.98
47374;BME280;33123;50.118;10.272;2023-04-27T06:55:07;97938.00;;;14.98;38.66
47374;BME280;33123;50.118;10.272;2023-04-27T06:57:33;97936.38;;;15.12;37.90
47374;BME280;33123;50.118;10.272;2023-04-27T07:00:00;97936.38;;;15.22;37.14
47374;BME280;33123;50.118;10.272;2023-04-27T07:02:27;97937.38;;;15.31;38.76
47374;BME280;33123;50.118;10.272;2023-04-27T07:04:54;97940.25;;;15.50;39.19
47374;BME280;33123;50.118;10.272;2023-04-27T07:07:22;97944.22;;;15.63;37.29
47374;BME280;33123;50.118;10.272;2023-04-27T07:09:48;97942.59;;;15.72;36.78
47374;BME280;33123;50.118;10.272;2023-04-27T07:12:15;97950.53;;;15.77;36.48
47374;BME280;33123;50.118;10.272;2023-04-27T07:14:41;97948.88;;;15.87;37.06
47374;BME280;33123;50.118;10.272;2023-04-27T07:17:08;97942.69;;;16.01;37.17
47374;BME280;33123;50.118;10.272;2023-04-27T07:19:35;97947.91;;;16.22;36.50
47374;BME280;33123;50.118;10.272;2023-04-27T07:22:02;97950.03;;;16.54;37.04
47374;BME280;33123;50.118;10.272;2023-04-27T07:24:30;97949.56;;;17.10;36.47
47374;BME280;33123;50.118;10.272;2023-04-27T07:26:56;97952.94;;;17.68;34.06
47374;BME280;33123;50.118;10.272;2023-04-27T07:29:23;97957.91;;;18.18;32.33
47374;BME280;33123;50.118;10.272;2023-04-27T07:31:52;97949.81;;;18.61;31.72
47374;BME280;33123;50.118;10.272;2023-04-27T07:34:19;97954.09;;;18.94;31.63
47374;BME280;33123;50.118;10.272;2023-04-27T07:36:46;97957.59;;;19.36;33.60
47374;BME280;33123;50.118;10.272;2023-04-27T07:39:13;97947.19;;;19.76;31.82
47374;BME280;33123;50.118;10.272;2023-04-27T07:41:41;97946.44;;;20.12;31.94
47374;BME280;33123;50.118;10.272;2023-04-27T07:44:07;97952.59;;;20.48;30.96
47374;BME280;33123;50.118;10.272;2023-04-27T07:46:34;97952.97;;;20.78;30.78
47374;BME280;33123;50.118;10.272;2023-04-27T07:49:02;97947.06;;;20.98;29.60
47374;BME280;33123;50.118;10.272;2023-04-27T07:51:29;97944.53;;;21.24;29.57
47374;BME280;33123;50.118;10.272;2023-04-27T07:53:56;97950.81;;;21.51;27.78
47374;BME280;33123;50.118;10.272;2023-04-27T07:56:23;97956.56;;;21.75;27.39
47374;BME280;33123;50.118;10.272;2023-04-27T07:58:51;97951.44;;;22.13;27.17
47374;BME280;33123;50.118;10.272;2023-04-27T08:01:17;97951.13;;;22.41;26.23
47374;BME280;33123;50.118;10.272;2023-04-27T08:03:45;97953.19;;;22.44;24.39
47374;BME280;33123;50.118;10.272;2023-04-27T08:06:12;97959.34;;;22.36;25.21
47374;BME280;33123;50.118;10.272;2023-04-27T08:08:38;97961.41;;;22.39;24.46
47374;BME280;33123;50.118;10.272;2023-04-27T08:11:08;97955.63;;;21.71;24.39
47374;BME280;33123;50.118;10.272;2023-04-27T08:13:34;97949.16;;;21.81;24.78
47374;BME280;33123;50.118;10.272;2023-04-27T08:16:03;97941.88;;;21.73;23.71
47374;BME280;33123;50.118;10.272;2023-04-27T08:18:30;97949.44;;;21.71;26.64
47374;BME280;33123;50.118;10.272;2023-04-27T08:20:56;97956.91;;;21.91;27.08
47374;BME280;33123;50.118;10.272;2023-04-27T08:23:25;97946.47;;;21.98;26.05
47374;BME280;33123;50.118;10.272;2023-04-27T08:25:53;97953.31;;;22.04;27.01
47374;BME280;33123;50.118;10.272;2023-04-27T08:28:20;97953.66;;;22.29;26.31
47374;BME280;33123;50.118;10.272;2023-04-27T08:30:47;97956.19;;;22.51;27.18
47374;BME280;33123;50.118;10.272;2023-04-27T08:33:15;97959.47;;;22.74;25.70
47374;BME280;33123;50.118;10.272;2023-04-27T08:35:42;97956.63;;;22.79;27.70
47374;BME280;33123;50.118;10.272;2023-04-27T08:38:08;97946.94;;;22.87;26.08
47374;BME280;33123;50.118;10.272;2023-04-27T08:40:35;97896.00;;;22.26;26.01
47374;BME280;33123;50.118;10.272;2023-04-27T08:43:07;97949.38;;;22.71;25.66
47374;BME280;33123;50.118;10.272;2023-04-27T08:45:33;97915.41;;;22.49;26.46
47374;BME280;33123;50.118;10.272;2023-04-27T08:48:00;97948.72;;;22.74;27.32
47374;BME280;33123;50.118;10.272;2023-04-27T08:50:28;97941.47;;;22.66;26.81
47374;BME280;33123;50.118;10.272;2023-04-27T08:52:55;97947.63;;;22.66;26.41
47374;BME280;33123;50.118;10.272;2023-04-27T08:55:22;97945.56;;;22.72;26.81
47374;BME280;33123;50.118;10.272;2023-04-27T08:57:56;97934.81;;;22.89;26.57
47374;BME280;33123;50.118;10.272;2023-04-27T09:00:24;97939.69;;;22.79;24.80
47374;BME280;33123;50.118;10.272;2023-04-27T09:02:51;97917.72;;;22.94;24.80
47374;BME280;33123;50.118;10.272;2023-04-27T09:05:20;97936.25;;;23.25;23.71
47374;BME280;33123;50.118;10.272;2023-04-27T09:07:59;97932.47;;;23.64;25.14
47374;BME280;33123;50.118;10.272;2023-04-27T09:10:26;97928.84;;;24.11;24.63
47374;BME280;33123;50.118;10.272;2023-04-27T09:12:55;97927.81;;;24.57;24.07
47374;BME280;33123;50.118;10.272;2023-04-27T09:15:22;97923.53;;;24.89;21.65
47374;BME280;33123;50.118;10.272;2023-04-27T09:17:53;97917.38;;;25.01;23.39
47374;BME280;33123;50.118;10.272;2023-04-27T09:20:20;97917.09;;;25.39;22.39
47374;BME280;33123;50.118;10.272;2023-04-27T09:22:48;97914.25;;;24.33;21.45
47374;BME280;33123;50.118;10.272;2023-04-27T09:25:24;97911.59;;;25.11;22.31
47374;BME280;33123;50.118;10.272;2023-04-27T09:27:51;97913.84;;;25.34;21.76
47374;BME280;33123;50.118;10.272;2023-04-27T09:30:18;97918.00;;;25.68;21.93
47374;BME280;33123;50.118;10.272;2023-04-27T09:32:50;97911.19;;;25.98;22.86
47374;BME280;33123;50.118;10.272;2023-04-27T09:35:21;97913.59;;;26.28;21.39
47374;BME280;33123;50.118;10.272;2023-04-27T09:37:48;97917.81;;;26.69;21.02
47374;BME280;33123;50.118;10.272;2023-04-27T09:40:17;97901.16;;;27.11;21.38
47374;BME280;33123;50.118;10.272;2023-04-27T09:42:45;97901.72;;;27.52;22.66
47374;BME280;33123;50.118;10.272;2023-04-27T09:45:12;97896.03;;;27.92;19.84
47374;BME280;33123;50.118;10.272;2023-04-27T09:47:39;97900.75;;;28.14;20.65
47374;BME280;33123;50.118;10.272;2023-04-27T09:50:07;97899.06;;;28.06;19.42
47374;BME280;33123;50.118;10.272;2023-04-27T09:52:34;97896.84;;;28.12;19.48
47374;BME280;33123;50.118;10.272;2023-04-27T09:55:04;97892.91;;;27.90;19.52
47374;BME280;33123;50.118;10.272;2023-04-27T09:57:36;97894.34;;;27.68;18.80
47374;BME280;33123;50.118;10.272;2023-04-27T10:00:19;97891.31;;;27.54;19.50
47374;BME280;33123;50.118;10.272;2023-04-27T10:03:02;97890.56;;;27.06;19.29
47374;BME280;33123;50.118;10.272;2023-04-27T10:06:01;97897.97;;;26.21;19.14
47374;BME280;33123;50.118;10.272;2023-04-27T10:08:37;97889.44;;;25.30;20.44
47374;BME280;33123;50.118;10.272;2023-04-27T10:11:12;97889.34;;;24.36;21.52
47374;BME280;33123;50.118;10.272;2023-04-27T10:13:49;97883.56;;;23.33;22.10
47374;BME280;33123;50.118;10.272;2023-04-27T10:16:18;97884.28;;;22.57;23.22
47374;BME280;33123;50.118;10.272;2023-04-27T10:18:50;97882.88;;;22.42;23.53
47374;BME280;33123;50.118;10.272;2023-04-27T10:21:17;97876.22;;;22.48;24.76
47374;BME280;33123;50.118;10.272;2023-04-27T10:23:47;97866.91;;;22.37;22.87
47374;BME280;33123;50.118;10.272;2023-04-27T10:26:21;97871.88;;;22.82;23.43
47374;BME280;33123;50.118;10.272;2023-04-27T10:28:56;97865.50;;;23.04;23.16
47374;BME280;33123;50.118;10.272;2023-04-27T10:31:27;97871.69;;;22.96;23.05
47374;BME280;33123;50.118;10.272;2023-04-27T10:34:04;97879.00;;;23.25;22.33
47374;BME280;33123;50.118;10.272;2023-04-27T10:36:35;97873.59;;;22.95;22.35
47374;BME280;33123;50.118;10.272;2023-04-27T10:39:02;97870.28;;;22.81;21.98
47374;BME280;33123;50.118;10.272;2023-04-27T10:41:33;97872.34;;;22.84;22.48
47374;BME280;33123;50.118;10.272;2023-04-27T10:44:13;97877.69;;;22.11;21.95
47374;BME280;33123;50.118;10.272;2023-04-27T10:46:50;97867.56;;;21.73;22.36
47374;BME280;33123;50.118;10.272;2023-04-27T10:49:16;97869.59;;;21.85;22.91
47374;BME280;33123;50.118;10.272;2023-04-27T10:51:43;97859.47;;;21.65;22.44
47374;BME280;33123;50.118;10.272;2023-04-27T10:54:11;97868.66;;;21.81;24.36
47374;BME280;33123;50.118;10.272;2023-04-27T10:56:39;97866.13;;;21.76;23.50
47374;BME280;33123;50.118;10.272;2023-04-27T10:59:06;97855.88;;;22.30;23.24
47374;BME280;33123;50.118;10.272;2023-04-27T11:01:33;97856.56;;;22.74;22.07
47374;BME280;33123;50.118;10.272;2023-04-27T11:04:01;97856.06;;;22.80;21.73
47374;BME280;33123;50.118;10.272;2023-04-27T11:06:28;97855.28;;;22.80;21.92
47374;BME280;33123;50.118;10.272;2023-04-27T11:08:56;97856.81;;;22.98;22.92
47374;BME280;33123;50.118;10.272;2023-04-27T11:11:23;97859.63;;;23.10;23.80
47374;BME280;33123;50.118;10.272;2023-04-27T11:13:50;97857.22;;;23.17;21.51
47374;BME280;33123;50.118;10.272;2023-04-27T11:16:17;97855.16;;;23.14;22.74
47374;BME280;33123;50.118;10.272;2023-04-27T11:18:44;97860.63;;;22.97;21.43
47374;BME280;33123;50.118;10.272;2023-04-27T11:21:14;97864.81;;;22.69;22.20
47374;BME280;33123;50.118;10.272;2023-04-27T11:23:41;97862.00;;;22.56;23.53
47374;BME280;33123;50.118;10.272;2023-04-27T11:26:08;97864.16;;;22.72;22.06
47374;BME280;33123;50.118;10.272;2023-04-27T11:28:35;97872.19;;;22.80;23.34
47374;BME280;33123;50.118;10.272;2023-04-27T11:31:02;97861.47;;;22.89;23.22
47374;BME280;33123;50.118;10.272;2023-04-27T11:33:29;97862.78;;;23.12;21.91
47374;BME280;33123;50.118;10.272;2023-04-27T11:35:56;97864.59;;;23.29;22.33
47374;BME280;33123;50.118;10.272;2023-04-27T11:38:24;97865.72;;;22.90;20.39
47374;BME280;33123;50.118;10.272;2023-04-27T11:40:58;97862.19;;;22.98;21.11
47374;BME280;33123;50.118;10.272;2023-04-27T11:43:26;97854.38;;;22.67;21.78
47374;BME280;33123;50.118;10.272;2023-04-27T11:45:54;97858.13;;;22.75;21.99
47374;BME280;33123;50.118;10.272;2023-04-27T11:48:22;97828.31;;;22.67;21.42
47374;BME280;33123;50.118;10.272;2023-04-27T11:50:50;97858.81;;;22.72;22.59
47374;BME280;33123;50.118;10.272;2023-04-27T11:53:40;97856.19;;;22.37;22.01
47374;BME280;33123;50.118;10.272;2023-04-27T11:56:09;97856.34;;;21.80;22.89
47374;BME280;33123;50.118;10.272;2023-04-27T11:58:37;97863.25;;;21.46;23.91
47374;BME280;33123;50.118;10.272;2023-04-27T12:01:04;97859.22;;;21.18;23.59
47374;BME280;33123;50.118;10.272;2023-04-27T12:03:32;97862.28;;;21.02;23.70
47374;BME280;33123;50.118;10.272;2023-04-27T12:05:58;97856.78;;;20.99;24.49
47374;BME280;33123;50.118;10.272;2023-04-27T12:08:25;97858.38;;;20.69;24.36
47374;BME280;33123;50.118;10.272;2023-04-27T12:10:53;97838.66;;;20.42;24.87
47374;BME280;33123;50.118;10.272;2023-04-27T12:13:20;97849.13;;;20.30;25.02
47374;BME280;33123;50.118;10.272;2023-04-27T12:15:47;97851.69;;;20.35;27.06
47374;BME280;33123;50.118;10.272;2023-04-27T12:18:14;97843.78;;;20.52;27.81
47374;BME280;33123;50.118;10.272;2023-04-27T12:20:40;97841.81;;;20.67;25.91
47374;BME280;33123;50.118;10.272;2023-04-27T12:23:07;97841.00;;;20.97;27.92
47374;BME280;33123;50.118;10.272;2023-04-27T12:25:33;97845.88;;;21.35;27.17
47374;BME280;33123;50.118;10.272;2023-04-27T12:28:02;97838.03;;;21.65;25.30
47374;BME280;33123;50.118;10.272;2023-04-27T12:30:28;97833.16;;;21.67;24.55
47374;BME280;33123;50.118;10.272;2023-04-27T12:32:55;97837.41;;;21.68;24.80
47374;BME280;33123;50.118;10.272;2023-04-27T12:35:23;97832.63;;;21.39;23.84
47374;BME280;33123;50.118;10.272;2023-04-27T12:37:50;97833.31;;;21.61;25.93
47374;BME280;33123;50.118;10.272;2023-04-27T12:40:17;97836.78;;;21.79;25.92
47374;BME280;33123;50.118;10.272;2023-04-27T12:42:43;97832.34;;;22.09;24.33
47374;BME280;33123;50.118;10.272;2023-04-27T12:45:11;97823.81;;;22.25;24.35
47374;BME280;33123;50.118;10.272;2023-04-27T12:47:38;97828.59;;;21.93;23.13
47374;BME280;33123;50.118;10.272;2023-04-27T12:50:06;97816.75;;;21.77;24.78
47374;BME280;33123;50.118;10.272;2023-04-27T12:52:33;97821.31;;;21.02;25.50
47374;BME280;33123;50.118;10.272;2023-04-27T12:55:00;97821.53;;;21.23;25.16
47374;BME280;33123;50.118;10.272;2023-04-27T12:57:27;97821.53;;;21.23;24.70